Time;durP1;ratioP1;P1;durP2;ratioP2;P2;SDS_P1;SDS_P2;PMS_P1;PMS_P2;Temp;Humidity;BMP_temperature;BMP_pressure;BME280_temperature;BME280_humidity;BME280_pressure;Samples;Min_cycle;Max_cycle;Signal;HPM_P1;HPM_P2
2023/08/11 00:00:25;;;;;;;7.22;4.03;;;20.10;71.70;;;;;;4962125;28;20038;-75
2023/08/11 00:02:51;;;;;;;7.07;3.60;;;20.10;71.70;;;;;;4960777;28;20030;-75
2023/08/11 00:05:17;;;;;;;9.48;4.05;;;20.10;71.70;;;;;;4958851;28;20047;-76
2023/08/11 00:07:47;;;;;;;8.25;4.10;;;20.10;71.90;;;;;;4966316;28;20035;-75
2023/08/11 00:10:13;;;;;;;6.53;3.65;;;20.00;72.10;;;;;;4966269;28;20460;-78
2023/08/11 00:12:39;;;;;;;6.13;3.35;;;20.00;72.20;;;;;;4964676;28;20053;-77
2023/08/11 00:15:06;;;;;;;7.30;4.15;;;19.90;72.30;;;;;;4968375;28;20046;-75
2023/08/11 00:17:32;;;;;;;8.43;4.18;;;20.00;72.40;;;;;;4963174;28;20038;-76
2023/08/11 00:19:58;;;;;;;7.25;4.10;;;19.90;72.50;;;;;;4960771;28;20027;-79
2023/08/11 00:22:23;;;;;;;7.47;3.85;;;19.80;72.80;;;;;;4954296;28;20449;-75
2023/08/11 00:24:49;;;;;;;5.90;3.65;;;19.80;72.90;;;;;;4953677;28;20035;-75
2023/08/11 00:27:15;;;;;;;7.55;4.00;;;19.70;73.00;;;;;;4962582;28;20471;-76
2023/08/11 00:29:40;;;;;;;9.20;4.25;;;19.70;73.20;;;;;;4968528;28;20447;-77
2023/08/11 00:32:06;;;;;;;8.55;4.05;;;19.70;73.40;;;;;;4967619;28;20054;-78
2023/08/11 00:34:32;;;;;;;10.15;4.32;;;19.60;73.50;;;;;;4974864;28;20713;-75
2023/08/11 00:36:58;;;;;;;8.10;4.47;;;19.60;73.60;;;;;;4971917;28;20030;-75
2023/08/11 00:39:23;;;;;;;8.10;3.90;;;19.60;73.70;;;;;;4980115;28;20463;-75
2023/08/11 00:41:50;;;;;;;7.70;3.90;;;19.60;73.70;;;;;;4963288;28;20043;-75
2023/08/11 00:44:16;;;;;;;9.05;3.88;;;19.60;73.80;;;;;;4950634;28;20344;-77
2023/08/11 00:46:43;;;;;;;6.82;3.70;;;19.50;73.90;;;;;;4951192;28;20027;-76
2023/08/11 00:49:09;;;;;;;8.15;3.92;;;19.50;74.00;;;;;;4961813;28;20030;-77
2023/08/11 00:51:35;;;;;;;6.45;4.07;;;19.50;74.10;;;;;;4964182;28;20398;-75
2023/08/11 00:54:01;;;;;;;7.97;4.10;;;19.40;74.30;;;;;;4979363;28;20031;-76
2023/08/11 00:56:27;;;;;;;7.55;4.00;;;19.40;74.50;;;;;;4959921;28;20491;-76
2023/08/11 00:58:54;;;;;;;7.40;4.30;;;19.30;74.80;;;;;;4949148;29;20023;-75
2023/08/11 01:01:20;;;;;;;8.35;4.82;;;19.30;75.00;;;;;;4947623;28;20043;-75
2023/08/11 01:03:47;;;;;;;7.85;4.95;;;19.20;75.10;;;;;;4949007;29;20035;-76
2023/08/11 01:06:45;;;;;;;9.73;4.97;;;19.20;75.10;;;;;;4942799;28;20043;-78
2023/08/11 01:09:29;;;;;;;8.43;4.40;;;19.10;75.40;;;;;;4947231;28;20039;-74
2023/08/11 01:12:07;;;;;;;7.60;4.50;;;19.10;75.70;;;;;;4968268;28;20043;-75
2023/08/11 01:14:48;;;;;;;8.23;4.43;;;19.00;76.00;;;;;;4950688;28;20059;-75
2023/08/11 01:17:16;;;;;;;7.65;5.15;;;18.90;76.30;;;;;;4956628;28;20054;-81
2023/08/11 01:19:42;;;;;;;8.13;4.60;;;18.90;76.60;;;;;;4951140;28;20535;-75
2023/08/11 01:22:14;;;;;;;6.78;4.18;;;18.80;76.80;;;;;;4955719;28;20027;-79
2023/08/11 01:24:41;;;;;;;7.10;4.35;;;18.80;77.00;;;;;;4954451;28;20110;-78
2023/08/11 01:27:06;;;;;;;7.25;4.55;;;18.80;77.20;;;;;;4963213;28;20031;-75
2023/08/11 01:29:32;;;;;;;8.85;4.43;;;18.70;77.30;;;;;;4952124;28;20047;-75
2023/08/11 01:31:58;;;;;;;9.73;4.95;;;18.70;77.60;;;;;;4968282;28;20035;-75
2023/08/11 01:34:23;;;;;;;8.05;4.68;;;18.70;77.80;;;;;;4975837;28;20092;-76
2023/08/11 01:36:56;;;;;;;8.35;4.97;;;18.60;78.00;;;;;;4976343;28;20038;-74
2023/08/11 01:39:22;;;;;;;8.73;4.63;;;18.60;78.10;;;;;;4970049;28;20062;-75
2023/08/11 01:41:48;;;;;;;8.43;4.65;;;18.60;78.20;;;;;;4978187;28;20493;-76
2023/08/11 01:44:14;;;;;;;7.82;4.43;;;18.60;78.10;;;;;;4986242;28;20061;-77
2023/08/11 01:46:42;;;;;;;9.80;4.75;;;18.60;78.10;;;;;;4959585;28;20031;-75
2023/08/11 01:49:10;;;;;;;7.18;4.38;;;18.60;78.20;;;;;;4957328;28;20027;-79
2023/08/11 01:51:36;;;;;;;8.70;4.80;;;18.60;78.20;;;;;;4955745;28;20134;-82
2023/08/11 01:54:02;;;;;;;8.73;4.90;;;18.60;78.20;;;;;;4959821;28;20474;-77
2023/08/11 01:56:29;;;;;;;8.63;4.97;;;18.50;78.30;;;;;;4946940;28;20142;-76
2023/08/11 01:58:56;;;;;;;8.85;4.85;;;18.50;78.40;;;;;;4957626;28;20042;-75
2023/08/11 02:01:22;;;;;;;9.30;5.20;;;18.50;78.60;;;;;;4950071;28;20035;-75
2023/08/11 02:03:48;;;;;;;8.77;5.28;;;18.50;78.70;;;;;;4951098;28;20034;-75
2023/08/11 02:06:14;;;;;;;8.38;4.55;;;18.40;78.80;;;;;;4949466;28;20444;-75
2023/08/11 02:08:40;;;;;;;9.35;4.78;;;18.40;79.00;;;;;;4943934;28;20030;-77
2023/08/11 02:11:06;;;;;;;10.13;5.70;;;18.40;79.20;;;;;;4952866;28;20050;-75
2023/08/11 02:13:32;;;;;;;8.93;4.85;;;18.40;79.30;;;;;;4966938;28;20034;-77
2023/08/11 02:15:58;;;;;;;9.20;4.97;;;18.40;79.40;;;;;;4968464;28;20396;-83
2023/08/11 02:18:24;;;;;;;8.32;4.57;;;18.40;79.50;;;;;;4978593;28;20460;-80
2023/08/11 02:20:50;;;;;;;8.27;4.65;;;18.40;79.50;;;;;;4968412;28;20142;-74
2023/08/11 02:23:15;;;;;;;9.77;5.07;;;18.40;79.60;;;;;;4968808;28;20053;-75
2023/08/11 02:25:41;;;;;;;8.27;4.85;;;18.40;79.50;;;;;;4954174;28;20039;-74
2023/08/11 02:28:07;;;;;;;9.07;5.47;;;18.30;79.60;;;;;;4976110;28;20027;-76
2023/08/11 02:30:33;;;;;;;8.65;4.72;;;18.30;79.60;;;;;;4967909;28;20043;-76
2023/08/11 02:32:59;;;;;;;8.05;5.10;;;18.20;79.80;;;;;;4960168;28;20047;-77
2023/08/11 02:35:25;;;;;;;9.27;5.18;;;18.20;79.90;;;;;;4962337;28;20093;-77
2023/08/11 02:37:50;;;;;;;8.88;5.57;;;18.10;80.10;;;;;;4966799;28;20038;-74
2023/08/11 02:40:19;;;;;;;8.00;5.10;;;18.10;80.20;;;;;;4968143;28;20035;-75
2023/08/11 02:42:52;;;;;;;9.18;5.15;;;18.10;80.30;;;;;;4969471;28;20221;-76
2023/08/11 02:45:18;;;;;;;9.38;5.28;;;18.10;80.50;;;;;;4962500;28;20065;-76
2023/08/11 02:47:43;;;;;;;8.27;5.05;;;18.10;80.60;;;;;;4969824;28;20042;-76
2023/08/11 02:50:10;;;;;;;9.02;5.00;;;18.10;80.70;;;;;;4986437;28;20038;-83
2023/08/11 02:52:36;;;;;;;7.53;4.82;;;18.10;80.90;;;;;;4980387;28;20043;-75
2023/08/11 02:55:06;;;;;;;9.68;5.05;;;18.00;80.90;;;;;;4972543;28;20029;-74
2023/08/11 02:57:32;;;;;;;10.52;5.65;;;18.00;81.00;;;;;;4967840;28;20627;-75
2023/08/11 02:59:58;;;;;;;9.88;5.28;;;18.00;81.20;;;;;;4970340;28;20472;-79
2023/08/11 03:02:24;;;;;;;11.02;5.80;;;18.10;81.20;;;;;;4963965;28;20039;-75
2023/08/11 03:04:49;;;;;;;11.60;6.53;;;18.00;81.30;;;;;;4964393;28;20023;-75
2023/08/11 03:07:16;;;;;;;9.32;6.60;;;18.00;81.10;;;;;;4964712;28;20053;-76
2023/08/11 03:09:42;;;;;;;11.13;5.90;;;17.80;81.30;;;;;;4969334;28;20391;-74
2023/08/11 03:12:08;;;;;;;11.27;6.03;;;17.80;81.60;;;;;;4964747;28;20080;-76
2023/08/11 03:14:36;;;;;;;10.43;6.07;;;17.70;81.70;;;;;;4968905;28;20121;-77
2023/08/11 03:17:05;;;;;;;12.02;5.60;;;17.70;81.70;;;;;;4956848;28;20153;-75
2023/08/11 03:19:31;;;;;;;11.40;5.72;;;17.70;81.70;;;;;;4968662;28;20470;-74
2023/08/11 03:21:57;;;;;;;8.93;5.53;;;17.70;81.50;;;;;;4965131;28;20051;-74
2023/08/11 03:24:22;;;;;;;9.38;6.20;;;17.70;81.50;;;;;;4956859;28;20027;-74
2023/08/11 03:26:48;;;;;;;8.20;5.97;;;17.70;81.60;;;;;;4966747;28;20407;-74
2023/08/11 03:29:14;;;;;;;10.50;6.22;;;17.70;81.70;;;;;;4979561;28;20061;-75
2023/08/11 03:31:39;;;;;;;9.30;6.25;;;17.70;81.70;;;;;;4973714;28;20313;-75
2023/08/11 03:34:05;;;;;;;9.98;6.72;;;17.70;81.70;;;;;;4980042;28;20042;-74
2023/08/11 03:36:31;;;;;;;8.82;6.50;;;17.70;81.70;;;;;;4964719;28;20122;-76
2023/08/11 03:38:57;;;;;;;11.43;6.47;;;17.70;81.80;;;;;;4953095;28;20027;-73
2023/08/11 03:41:25;;;;;;;11.27;5.78;;;17.70;81.70;;;;;;4963615;28;20046;-74
2023/08/11 03:43:52;;;;;;;11.07;6.68;;;17.70;81.80;;;;;;4987658;28;20090;-80
2023/08/11 03:46:17;;;;;;;10.73;6.38;;;17.70;81.90;;;;;;4987993;28;20038;-79
2023/08/11 03:48:43;;;;;;;9.90;6.90;;;17.70;81.80;;;;;;4990764;28;20565;-82
2023/08/11 03:51:09;;;;;;;9.57;5.90;;;17.70;81.90;;;;;;4966302;28;20137;-80
2023/08/11 03:53:36;;;;;;;9.82;6.00;;;17.60;81.90;;;;;;4976186;28;20457;-74
2023/08/11 03:56:07;;;;;;;11.50;6.57;;;17.60;82.00;;;;;;4965363;28;20045;-80
2023/08/11 03:58:36;;;;;;;9.15;6.18;;;17.60;82.00;;;;;;4971555;28;20435;-76
2023/08/11 04:01:04;;;;;;;10.18;6.80;;;17.60;81.90;;;;;;4962611;28;20034;-74
2023/08/11 04:03:32;;;;;;;10.40;6.00;;;17.60;81.90;;;;;;4968090;28;20030;-77
2023/08/11 04:05:58;;;;;;;10.27;6.45;;;17.60;82.00;;;;;;4961774;28;20054;-75
2023/08/11 04:08:26;;;;;;;8.60;5.70;;;17.60;82.10;;;;;;4954993;28;20035;-77
2023/08/11 04:10:52;;;;;;;9.43;6.18;;;17.60;82.10;;;;;;4958714;28;20027;-76
2023/08/11 04:13:18;;;;;;;10.02;7.05;;;17.60;82.20;;;;;;4962861;28;20053;-75
2023/08/11 04:15:45;;;;;;;11.38;7.05;;;17.50;82.30;;;;;;4955007;28;20034;-75
2023/08/11 04:18:12;;;;;;;9.05;6.20;;;17.50;82.30;;;;;;4957480;28;20023;-76
2023/08/11 04:20:38;;;;;;;8.50;6.25;;;17.50;82.30;;;;;;4951297;28;20097;-76
2023/08/11 04:23:03;;;;;;;9.50;6.28;;;17.50;82.20;;;;;;4980700;28;20034;-75
2023/08/11 04:25:29;;;;;;;9.77;6.35;;;17.50;82.20;;;;;;4967706;28;20085;-75
2023/08/11 04:27:55;;;;;;;12.48;6.65;;;17.50;82.20;;;;;;4978446;28;20076;-75
2023/08/11 04:30:21;;;;;;;10.15;6.88;;;17.50;82.20;;;;;;4972276;28;20051;-75
2023/08/11 04:32:47;;;;;;;11.20;6.95;;;17.60;82.20;;;;;;4967436;28;20625;-76
2023/08/11 04:35:13;;;;;;;12.18;6.97;;;17.50;82.00;;;;;;4989644;28;20022;-77
2023/08/11 04:37:40;;;;;;;11.77;6.93;;;17.60;81.80;;;;;;4973200;28;20057;-82
2023/08/11 04:40:10;;;;;;;10.82;6.80;;;17.60;81.70;;;;;;4971994;28;20031;-75
2023/08/11 04:42:42;;;;;;;10.88;7.32;;;17.60;81.60;;;;;;4947315;28;20078;-77
2023/08/11 04:45:08;;;;;;;9.73;6.50;;;17.60;81.60;;;;;;4949810;28;20110;-76
2023/08/11 04:47:34;;;;;;;11.20;6.30;;;17.70;81.40;;;;;;4946919;28;20032;-80
2023/08/11 04:50:00;;;;;;;8.63;5.65;;;17.70;81.30;;;;;;4948878;29;20109;-77
2023/08/11 04:52:27;;;;;;;9.90;5.70;;;17.70;81.20;;;;;;4942451;28;20424;-75
2023/08/11 04:54:52;;;;;;;9.32;5.63;;;17.80;81.00;;;;;;4943070;29;20039;-78
2023/08/11 04:57:18;;;;;;;8.57;5.20;;;17.90;80.70;;;;;;4941559;28;20495;-76
2023/08/11 04:59:44;;;;;;;10.77;5.38;;;17.90;80.50;;;;;;4949072;28;20035;-74
2023/08/11 05:02:10;;;;;;;8.77;4.63;;;18.00;79.90;;;;;;4944909;28;20044;-77
2023/08/11 05:04:35;;;;;;;8.98;4.55;;;18.00;79.70;;;;;;4951712;29;20535;-75
2023/08/11 05:07:01;;;;;;;9.10;4.72;;;18.10;79.30;;;;;;4940478;28;20047;-74
2023/08/11 05:09:27;;;;;;;7.30;4.20;;;18.20;78.90;;;;;;4951143;28;20469;-76
2023/08/11 05:11:52;;;;;;;9.68;4.82;;;18.30;78.50;;;;;;4962086;28;20039;-80
2023/08/11 05:14:18;;;;;;;9.27;4.35;;;18.40;78.40;;;;;;4972735;28;20034;-78
2023/08/11 05:16:47;;;;;;;10.63;4.55;;;18.50;78.00;;;;;;4963429;28;20063;-76
2023/08/11 05:19:13;;;;;;;9.88;4.57;;;18.60;77.50;;;;;;4956861;28;20027;-77
2023/08/11 05:21:39;;;;;;;7.97;4.07;;;18.70;77.10;;;;;;4957295;28;20392;-75
2023/08/11 05:24:06;;;;;;;10.40;3.78;;;18.80;76.80;;;;;;4967146;28;20023;-75
2023/08/11 05:26:32;;;;;;;7.88;4.30;;;18.90;76.60;;;;;;4953776;28;20039;-75
2023/08/11 05:28:58;;;;;;;7.97;4.20;;;19.00;76.20;;;;;;4956099;28;20357;-76
2023/08/11 05:31:24;;;;;;;9.98;4.38;;;19.10;76.00;;;;;;4947624;28;20062;-75
2023/08/11 05:33:49;;;;;;;8.80;4.15;;;19.20;75.60;;;;;;4961516;28;20443;-75
2023/08/11 05:36:15;;;;;;;8.70;4.38;;;19.20;75.60;;;;;;4960520;28;20476;-76
2023/08/11 05:38:41;;;;;;;7.78;3.90;;;19.30;75.30;;;;;;4969342;28;20023;-75
2023/08/11 05:41:06;;;;;;;9.30;4.82;;;19.40;75.10;;;;;;4968079;28;20045;-74
2023/08/11 05:43:32;;;;;;;9.82;4.22;;;19.60;74.90;;;;;;4969012;28;20492;-75
2023/08/11 05:45:58;;;;;;;8.95;4.03;;;19.60;74.80;;;;;;4968145;28;20035;-75
2023/08/11 05:48:23;;;;;;;7.88;3.92;;;19.70;74.60;;;;;;4967842;28;20478;-77
2023/08/11 05:50:50;;;;;;;8.13;4.07;;;19.70;74.40;;;;;;4966386;28;20066;-75
2023/08/11 05:53:16;;;;;;;9.52;4.20;;;19.80;74.40;;;;;;4967875;28;20069;-77
2023/08/11 05:55:41;;;;;;;11.70;4.82;;;19.90;74.40;;;;;;4966647;28;20038;-75
2023/08/11 05:58:07;;;;;;;10.77;4.28;;;20.00;73.90;;;;;;4966149;28;20023;-78
2023/08/11 06:00:33;;;;;;;8.32;3.92;;;20.00;73.90;;;;;;4968404;28;20122;-74
2023/08/11 06:02:58;;;;;;;13.23;4.80;;;20.10;73.70;;;;;;4957938;28;20751;-76
2023/08/11 06:05:24;;;;;;;10.80;4.78;;;20.10;73.50;;;;;;4953246;28;20435;-76
2023/08/11 06:07:50;;;;;;;9.20;3.97;;;20.20;73.30;;;;;;4956904;28;20035;-74
2023/08/11 06:10:16;;;;;;;10.70;4.30;;;20.30;73.00;;;;;;4957422;28;20031;-75
2023/08/11 06:12:42;;;;;;;10.35;3.85;;;20.40;72.80;;;;;;4954592;28;20047;-75
2023/08/11 06:15:08;;;;;;;7.75;3.78;;;20.50;72.50;;;;;;4964520;28;20089;-77
2023/08/11 06:17:36;;;;;;;9.95;4.10;;;20.60;72.50;;;;;;4964368;28;20035;-74
2023/08/11 06:20:02;;;;;;;8.75;4.05;;;20.70;72.10;;;;;;4958554;28;20034;-75
2023/08/11 06:22:27;;;;;;;6.95;3.88;;;20.80;72.00;;;;;;4973151;28;20043;-76
2023/08/11 06:24:54;;;;;;;10.15;4.60;;;20.90;71.90;;;;;;4973858;28;20494;-76
2023/08/11 06:27:19;;;;;;;8.93;4.30;;;21.10;71.00;;;;;;4973720;28;20117;-74
2023/08/11 06:29:45;;;;;;;10.57;4.70;;;21.10;71.20;;;;;;4979156;28;20356;-75
2023/08/11 06:32:11;;;;;;;8.75;4.45;;;21.40;70.70;;;;;;4974861;28;20447;-76
2023/08/11 06:34:37;;;;;;;9.95;4.28;;;21.60;69.70;;;;;;4973813;28;20055;-74
2023/08/11 06:37:02;;;;;;;10.50;4.20;;;21.80;69.10;;;;;;4969976;28;20034;-74
2023/08/11 06:39:28;;;;;;;14.15;4.95;;;22.10;68.80;;;;;;4975940;28;20494;-76
2023/08/11 06:41:54;;;;;;;12.57;4.20;;;22.30;67.80;;;;;;4960751;28;20069;-75
2023/08/11 06:44:19;;;;;;;9.50;3.92;;;22.40;68.00;;;;;;4955823;28;20108;-78
2023/08/11 06:46:45;;;;;;;9.90;4.25;;;22.50;67.10;;;;;;4962303;28;20031;-77
2023/08/11 06:49:11;;;;;;;10.43;4.50;;;22.50;67.30;;;;;;4979250;28;20035;-79
2023/08/11 06:51:37;;;;;;;10.73;4.85;;;22.60;67.10;;;;;;4965047;28;20035;-74
2023/08/11 06:54:03;;;;;;;8.07;4.10;;;22.60;66.60;;;;;;4951573;28;20054;-78
2023/08/11 06:56:28;;;;;;;8.90;4.18;;;22.70;66.70;;;;;;4967415;28;20042;-75
2023/08/11 06:58:54;;;;;;;11.32;4.75;;;22.70;67.20;;;;;;4969800;28;20027;-74
2023/08/11 07:01:20;;;;;;;9.05;4.47;;;22.70;67.10;;;;;;4962905;28;20065;-75
2023/08/11 07:03:45;;;;;;;9.73;4.65;;;22.70;67.70;;;;;;4951059;28;20038;-75
2023/08/11 07:06:11;;;;;;;8.60;4.70;;;22.70;67.70;;;;;;4956994;28;20063;-77
2023/08/11 07:08:37;;;;;;;12.65;4.32;;;22.60;67.70;;;;;;4975242;28;20031;-75
2023/08/11 07:11:02;;;;;;;8.85;4.13;;;22.60;67.90;;;;;;4971641;28;20035;-75
2023/08/11 07:13:28;;;;;;;9.27;4.25;;;22.60;68.60;;;;;;4971130;28;20520;-76
2023/08/11 07:15:57;;;;;;;9.52;4.13;;;22.60;67.80;;;;;;4967820;28;20043;-77
2023/08/11 07:18:23;;;;;;;8.40;4.53;;;22.60;68.30;;;;;;4965603;28;20385;-77
2023/08/11 07:20:49;;;;;;;6.38;3.78;;;22.70;68.10;;;;;;4967136;28;20442;-77
2023/08/11 07:23:16;;;;;;;7.70;3.67;;;23.00;67.70;;;;;;4964430;28;20023;-78
2023/08/11 07:25:42;;;;;;;8.65;4.40;;;23.20;66.70;;;;;;4959691;28;20039;-78
2023/08/11 07:28:07;;;;;;;9.57;4.40;;;23.40;65.60;;;;;;4965329;28;20033;-78
2023/08/11 07:30:33;;;;;;;8.15;4.38;;;23.50;65.20;;;;;;4963984;28;20387;-79
2023/08/11 07:33:01;;;;;;;10.25;4.32;;;23.40;65.70;;;;;;4966115;28;20057;-78
2023/08/11 07:35:27;;;;;;;9.45;4.20;;;23.40;66.30;;;;;;4969777;28;20050;-79
2023/08/11 07:37:52;;;;;;;11.50;4.63;;;23.20;66.10;;;;;;4960257;28;20267;-79
2023/08/11 07:40:18;;;;;;;8.32;4.32;;;23.30;66.90;;;;;;4967279;28;20475;-78
2023/08/11 07:42:44;;;;;;;11.77;4.85;;;23.50;66.70;;;;;;4963673;28;20078;-79
2023/08/11 07:45:12;;;;;;;10.73;5.15;;;23.70;66.40;;;;;;4965506;28;20027;-78
2023/08/11 07:47:38;;;;;;;10.10;4.65;;;24.00;65.10;;;;;;4972030;28;20410;-77
2023/08/11 07:50:05;;;;;;;8.18;4.40;;;24.10;65.30;;;;;;4987929;28;20062;-78
2023/08/11 07:52:32;;;;;;;13.40;5.00;;;24.30;64.60;;;;;;4983718;28;20054;-76
2023/08/11 07:55:00;;;;;;;9.63;5.18;;;24.50;63.90;;;;;;4967202;28;20058;-78
2023/08/11 07:57:27;;;;;;;9.65;4.88;;;24.40;64.40;;;;;;4963914;28;20105;-77
2023/08/11 07:59:53;;;;;;;8.73;5.47;;;24.40;64.60;;;;;;4968870;28;20189;-78
2023/08/11 08:02:23;;;;;;;9.88;5.60;;;24.40;64.40;;;;;;4958170;28;20086;-82
2023/08/11 08:04:49;;;;;;;11.18;5.30;;;24.50;64.50;;;;;;4951345;28;20163;-79
2023/08/11 08:07:15;;;;;;;12.20;5.72;;;24.60;64.50;;;;;;4959241;28;20129;-78
2023/08/11 08:09:42;;;;;;;12.95;5.88;;;24.60;64.70;;;;;;4962576;28;20403;-78
2023/08/11 08:12:08;;;;;;;11.38;5.25;;;24.80;63.20;;;;;;4964670;28;20045;-78
2023/08/11 08:14:36;;;;;;;9.70;6.00;;;24.60;64.10;;;;;;4968154;28;20434;-79
2023/08/11 08:17:02;;;;;;;12.27;6.20;;;24.50;64.60;;;;;;4959590;28;20062;-78
2023/08/11 08:19:28;;;;;;;11.10;6.03;;;24.60;64.90;;;;;;4952855;28;20078;-78
2023/08/11 08:21:54;;;;;;;13.48;5.95;;;24.80;65.10;;;;;;4958106;28;20395;-78
2023/08/11 08:24:20;;;;;;;15.32;6.03;;;25.10;63.80;;;;;;4953905;28;20061;-78
2023/08/11 08:26:47;;;;;;;9.00;5.57;;;25.30;63.50;;;;;;4962498;28;20027;-78
2023/08/11 08:29:14;;;;;;;12.20;6.05;;;25.20;63.80;;;;;;4969101;28;20155;-77
2023/08/11 08:31:40;;;;;;;10.00;6.00;;;25.40;63.00;;;;;;4968616;28;20035;-78
2023/08/11 08:34:06;;;;;;;11.85;7.35;;;25.60;62.00;;;;;;4959926;28;20234;-78
2023/08/11 08:36:34;;;;;;;11.85;6.22;;;25.50;62.90;;;;;;4951955;28;20047;-80
2023/08/11 08:39:00;;;;;;;10.20;6.70;;;25.60;62.70;;;;;;4949057;28;20031;-78
2023/08/11 08:41:31;;;;;;;12.90;7.05;;;25.60;62.50;;;;;;4946694;28;20048;-77
2023/08/11 08:43:59;;;;;;;10.90;7.00;;;25.40;63.50;;;;;;4948790;28;20090;-77
2023/08/11 08:46:31;;;;;;;10.15;7.60;;;25.50;63.40;;;;;;4947110;28;20046;-77
2023/08/11 08:49:11;;;;;;;11.15;7.82;;;25.60;63.50;;;;;;4945832;28;20536;-79
2023/08/11 08:51:41;;;;;;;12.48;7.18;;;25.80;62.30;;;;;;4946913;28;20062;-78
2023/08/11 08:54:10;;;;;;;11.18;7.20;;;26.10;61.40;;;;;;4944569;28;20099;-78
2023/08/11 08:56:38;;;;;;;10.55;6.03;;;26.40;61.30;;;;;;4940190;28;20491;-79
2023/08/11 08:59:05;;;;;;;11.30;5.82;;;26.40;60.00;;;;;;4943998;29;20031;-79
2023/08/11 09:01:32;;;;;;;12.45;5.07;;;26.10;59.90;;;;;;4945116;28;20567;-77
2023/08/11 09:03:59;;;;;;;10.50;5.00;;;26.10;60.80;;;;;;4944129;28;20106;-81
2023/08/11 09:06:26;;;;;;;12.15;4.90;;;26.30;60.60;;;;;;4946570;28;20051;-83
2023/08/11 09:08:52;;;;;;;11.18;5.07;;;26.50;60.80;;;;;;4939029;29;20476;-78
2023/08/11 09:11:19;;;;;;;10.43;5.90;;;26.60;60.30;;;;;;4941007;28;20130;-80
2023/08/11 09:13:45;;;;;;;12.48;5.55;;;26.50;60.30;;;;;;4946552;29;20035;-80
2023/08/11 09:16:13;;;;;;;10.57;5.20;;;26.50;60.80;;;;;;4940313;28;20086;-77
2023/08/11 09:18:40;;;;;;;12.23;6.05;;;26.70;57.90;;;;;;4947131;28;20105;-82
2023/08/11 09:21:06;;;;;;;12.27;5.93;;;26.60;59.60;;;;;;4945843;28;20138;-79
2023/08/11 09:23:36;;;;;;;13.15;5.75;;;26.60;59.90;;;;;;4943750;28;20035;-80
2023/08/11 09:26:02;;;;;;;14.55;6.88;;;26.60;61.20;;;;;;4942097;28;20287;-80
2023/08/11 09:28:28;;;;;;;12.70;6.30;;;26.60;60.40;;;;;;4944219;28;20035;-81
2023/08/11 09:30:55;;;;;;;14.20;6.15;;;26.40;60.30;;;;;;4942699;28;20082;-80
2023/08/11 09:33:25;;;;;;;14.10;6.35;;;26.40;61.40;;;;;;4957186;28;20078;-81
2023/08/11 09:35:53;;;;;;;13.15;6.53;;;26.50;60.70;;;;;;4942571;28;20035;-80
2023/08/11 09:38:19;;;;;;;12.55;6.93;;;26.80;60.70;;;;;;4942988;29;20472;-81
2023/08/11 09:40:50;;;;;;;11.65;6.82;;;26.80;59.90;;;;;;4943680;28;20058;-79
2023/08/11 09:43:16;;;;;;;11.60;5.45;;;26.90;61.40;;;;;;4938675;28;20055;-78
2023/08/11 09:45:42;;;;;;;9.90;4.97;;;27.20;59.90;;;;;;4944574;28;20035;-79
2023/08/11 09:48:08;;;;;;;15.85;6.57;;;27.40;59.90;;;;;;4940975;28;20115;-78
2023/08/11 09:50:35;;;;;;;14.35;6.53;;;27.30;58.20;;;;;;4937798;28;20039;-77
2023/08/11 09:53:05;;;;;;;14.10;6.32;;;27.00;59.80;;;;;;4923148;29;20131;-78
2023/08/11 09:55:32;;;;;;;11.45;6.07;;;27.00;60.00;;;;;;4927142;28;20589;-80
2023/08/11 09:57:59;;;;;;;10.70;5.85;;;26.90;59.20;;;;;;4930834;28;20044;-79
2023/08/11 10:00:25;;;;;;;14.68;6.70;;;27.30;60.80;;;;;;4932295;28;20087;-79
2023/08/11 10:03:00;;;;;;;12.27;6.40;;;27.40;59.90;;;;;;4949664;28;20031;-79
2023/08/11 10:05:28;;;;;;;14.15;7.13;;;27.60;58.30;;;;;;4947833;28;20041;-79
2023/08/11 10:07:57;;;;;;;13.35;6.32;;;27.80;59.20;;;;;;4949349;28;20039;-78
2023/08/11 10:10:24;;;;;;;14.77;7.07;;;27.80;58.60;;;;;;4946264;28;20040;-78
2023/08/11 10:13:19;;;;;;;15.75;7.20;;;27.60;58.90;;;;;;4948501;28;20488;-77
2023/08/11 10:15:48;;;;;;;13.82;6.50;;;27.80;57.80;;;;;;4958168;28;20043;-79
2023/08/11 10:18:16;;;;;;;14.00;6.97;;;28.20;56.60;;;;;;4953033;28;20027;-80
2023/08/11 10:20:42;;;;;;;12.63;6.88;;;28.50;58.00;;;;;;4949253;28;20039;-81
2023/08/11 10:23:09;;;;;;;14.98;6.80;;;28.60;56.30;;;;;;4956415;28;20023;-79
2023/08/11 10:25:36;;;;;;;14.93;6.57;;;28.50;56.30;;;;;;4949374;28;20043;-82
2023/08/11 10:28:06;;;;;;;11.73;6.07;;;28.20;57.30;;;;;;4926173;29;20036;-78
2023/08/11 10:30:33;;;;;;;12.07;5.90;;;28.10;58.20;;;;;;4931154;28;20035;-80
2023/08/11 10:33:06;;;;;;;13.80;5.63;;;28.10;58.30;;;;;;4948343;28;20031;-80
2023/08/11 10:35:51;;;;;;;15.70;6.00;;;28.30;56.40;;;;;;4946272;28;20039;-82
2023/08/11 10:38:27;;;;;;;10.32;4.00;;;28.30;58.00;;;;;;4948796;28;20187;-82
2023/08/11 10:41:08;;;;;;;8.45;3.90;;;28.30;57.70;;;;;;4945650;28;20083;-83
2023/08/11 10:43:37;;;;;;;12.27;4.65;;;28.40;57.40;;;;;;4966811;28;20043;-80
2023/08/11 10:46:31;;;;;;;14.50;6.18;;;28.40;58.10;;;;;;4959263;28;20031;-79
2023/08/11 10:49:21;;;;;;;9.95;4.60;;;28.40;58.40;;;;;;4944310;28;20133;-78
2023/08/11 10:51:47;;;;;;;13.23;5.18;;;28.60;56.90;;;;;;4941693;28;20059;-81
2023/08/11 10:54:22;;;;;;;12.75;4.90;;;28.60;57.10;;;;;;4945313;28;20065;-79
2023/08/11 10:56:50;;;;;;;11.70;5.43;;;28.60;57.10;;;;;;4954449;28;20350;-81
2023/08/11 10:59:17;;;;;;;11.90;5.15;;;28.90;55.70;;;;;;4942373;28;20342;-79
2023/08/11 11:01:47;;;;;;;15.35;5.35;;;28.80;55.90;;;;;;4943544;28;20057;-77
2023/08/11 11:04:15;;;;;;;10.23;4.60;;;28.50;57.20;;;;;;4944941;29;20027;-80
2023/08/11 11:06:43;;;;;;;10.93;5.03;;;28.30;58.30;;;;;;4944681;28;20031;-77
2023/08/11 11:09:10;;;;;;;11.27;5.28;;;28.20;58.70;;;;;;4944654;28;20110;-82
2023/08/11 11:11:36;;;;;;;12.73;4.93;;;28.20;59.40;;;;;;4939568;28;20051;-82
2023/08/11 11:14:07;;;;;;;11.98;4.68;;;27.90;59.60;;;;;;4943035;28;20147;-81
2023/08/11 11:16:34;;;;;;;13.50;5.18;;;27.70;60.60;;;;;;4942759;28;20086;-80
2023/08/11 11:19:01;;;;;;;11.38;4.90;;;27.50;61.50;;;;;;4942536;28;20173;-81
2023/08/11 11:21:26;;;;;;;11.10;4.75;;;27.50;61.30;;;;;;4940862;28;20063;-79
2023/08/11 11:23:52;;;;;;;11.82;4.85;;;27.70;61.90;;;;;;4945660;28;20419;-78
2023/08/11 11:26:32;;;;;;;9.15;4.38;;;27.90;61.30;;;;;;4944043;28;20035;-78
2023/08/11 11:29:00;;;;;;;11.90;4.88;;;28.10;61.20;;;;;;4971729;28;20397;-78
2023/08/11 11:31:28;;;;;;;11.13;5.18;;;28.10;61.30;;;;;;4940884;28;20475;-78
2023/08/11 11:33:55;;;;;;;9.75;3.80;;;28.00;61.30;;;;;;4944522;28;20039;-78
2023/08/11 11:36:23;;;;;;;12.23;5.10;;;28.00;62.50;;;;;;4943745;28;20545;-78
2023/08/11 11:38:49;;;;;;;10.70;4.57;;;27.70;62.00;;;;;;4943469;28;20527;-77
2023/08/11 11:41:17;;;;;;;15.45;4.82;;;27.70;63.00;;;;;;4956138;28;20832;-79
2023/08/11 11:43:45;;;;;;;13.10;4.18;;;28.10;61.70;;;;;;4969708;28;20073;-77
2023/08/11 11:46:17;;;;;;;15.63;4.10;;;28.10;61.70;;;;;;4958255;28;20432;-78
2023/08/11 11:48:51;;;;;;;10.85;4.90;;;28.30;61.50;;;;;;4946524;28;20027;-78
2023/08/11 11:51:19;;;;;;;12.77;3.83;;;28.40;59.60;;;;;;4940590;28;20392;-76
2023/08/11 11:53:45;;;;;;;8.82;3.70;;;28.20;61.00;;;;;;4941924;28;20348;-75
2023/08/11 11:56:15;;;;;;;10.10;3.90;;;28.10;60.70;;;;;;4941306;28;20125;-75
2023/08/11 11:58:43;;;;;;;11.15;4.28;;;27.60;61.80;;;;;;4952133;28;20027;-75
2023/08/11 12:01:11;;;;;;;11.25;4.45;;;27.50;62.80;;;;;;4955396;28;20416;-74
2023/08/11 12:03:37;;;;;;;11.18;3.60;;;27.30;63.80;;;;;;4945026;28;20110;-77
2023/08/11 12:06:08;;;;;;;14.18;4.65;;;27.40;64.30;;;;;;4947085;28;20608;-78
2023/08/11 12:08:35;;;;;;;11.25;4.30;;;27.20;64.30;;;;;;4959530;28;20096;-76
2023/08/11 12:11:04;;;;;;;12.20;4.90;;;26.90;65.10;;;;;;4958599;28;20051;-73
2023/08/11 12:13:31;;;;;;;12.07;4.10;;;27.20;64.70;;;;;;4946681;28;20054;-74
2023/08/11 12:15:58;;;;;;;16.70;5.35;;;27.50;64.50;;;;;;4946506;28;20538;-77
2023/08/11 12:18:24;;;;;;;13.35;5.13;;;27.40;64.40;;;;;;4945773;28;20027;-76
2023/08/11 12:20:50;;;;;;;14.43;4.80;;;27.50;64.70;;;;;;4949739;28;20097;-74
2023/08/11 12:23:17;;;;;;;13.20;4.80;;;27.50;65.20;;;;;;4944399;28;20063;-76
2023/08/11 12:25:42;;;;;;;12.55;5.28;;;27.30;63.90;;;;;;4948805;28;20039;-76
2023/08/11 12:28:08;;;;;;;15.55;6.05;;;27.10;65.00;;;;;;4961082;28;20028;-77
2023/08/11 12:30:34;;;;;;;14.07;5.57;;;26.80;65.60;;;;;;4949817;28;20472;-76
2023/08/11 12:33:00;;;;;;;10.13;4.45;;;26.70;66.60;;;;;;4944466;28;20093;-77
2023/08/11 12:35:25;;;;;;;15.63;5.25;;;26.60;66.80;;;;;;4958664;28;20420;-80
2023/08/11 12:37:51;;;;;;;16.13;5.75;;;26.60;66.80;;;;;;4954783;28;20047;-77
2023/08/11 12:40:18;;;;;;;12.20;5.50;;;26.50;66.90;;;;;;4952105;28;20325;-77